createdAt,value
2022-08-12T00:00:35.121Z,16.60
2022-08-12T00:03:21.222Z,16.60
2022-08-12T00:06:08.203Z,16.60
2022-08-12T00:08:56.658Z,16.50
2022-08-12T00:11:44.125Z,16.50
2022-08-12T00:14:30.286Z,16.50
2022-08-12T00:17:16.197Z,16.40
2022-08-12T00:20:01.651Z,16.30
2022-08-12T00:22:53.064Z,16.30
2022-08-12T00:26:21.671Z,16.30
2022-08-12T00:29:01.655Z,16.30
2022-08-12T00:31:47.167Z,16.20
2022-08-12T00:34:37.005Z,16.20
2022-08-12T00:37:23.881Z,16.10
2022-08-12T00:40:11.354Z,16.10
2022-08-12T00:42:41.276Z,16.20
2022-08-12T00:45:09.580Z,16.10
2022-08-12T00:47:37.814Z,16.10
2022-08-12T00:50:06.202Z,16.00
2022-08-12T00:52:34.580Z,16.00
2022-08-12T00:55:03.079Z,16.00
2022-08-12T00:57:37.191Z,15.90
2022-08-12T01:00:11.391Z,15.90
2022-08-12T01:02:41.061Z,15.90
2022-08-12T01:05:30.463Z,15.80
2022-08-12T01:08:17.004Z,15.70
2022-08-12T01:11:04.127Z,15.60
2022-08-12T01:13:34.449Z,15.60
2022-08-12T01:16:04.064Z,15.60
2022-08-12T01:18:37.876Z,15.60
2022-08-12T01:21:42.286Z,15.50
2022-08-12T01:24:30.084Z,15.40
2022-08-12T01:26:59.974Z,15.50
2022-08-12T01:29:32.480Z,15.50
2022-08-12T01:32:05.333Z,15.50
2022-08-12T01:34:37.386Z,15.60
2022-08-12T01:37:07.858Z,15.50
2022-08-12T01:40:31.378Z,15.50
2022-08-12T01:42:33.044Z,15.50
2022-08-12T01:45:01.993Z,15.50
2022-08-12T01:47:31.879Z,15.40
2022-08-12T01:50:23.151Z,15.40
2022-08-12T01:53:12.928Z,15.30
2022-08-12T01:55:43.307Z,15.30
2022-08-12T01:58:27.035Z,15.30
2022-08-12T02:01:01.353Z,15.20
2022-08-12T02:03:52.543Z,15.30
2022-08-12T02:06:55.050Z,15.20
2022-08-12T02:09:51.821Z,15.20
2022-08-12T02:12:53.541Z,15.10
2022-08-12T02:15:41.476Z,15.10
2022-08-12T02:18:34.132Z,15.10
2022-08-12T02:21:19.434Z,15.10
2022-08-12T02:23:47.454Z,15.20
2022-08-12T02:26:16.423Z,15.10
2022-08-12T02:28:44.133Z,15.10
2022-08-12T02:31:12.716Z,15.00
2022-08-12T02:33:41.509Z,15.00
2022-08-12T02:36:08.693Z,15.00
2022-08-12T02:38:36.574Z,14.90
2022-08-12T02:41:05.590Z,14.90
2022-08-12T02:43:49.384Z,14.90
2022-08-12T02:46:23.925Z,14.90
2022-08-12T02:48:52.776Z,14.90
2022-08-12T02:51:23.874Z,14.90
2022-08-12T02:54:05.139Z,14.80
2022-08-12T02:56:37.995Z,14.80
2022-08-12T02:59:06.782Z,14.70
2022-08-12T03:01:34.827Z,14.70
2022-08-12T03:04:07.225Z,14.70
2022-08-12T03:06:56.445Z,14.80
2022-08-12T03:09:28.713Z,14.70
2022-08-12T03:12:05.169Z,14.70
2022-08-12T03:14:35.953Z,14.30
2022-08-12T03:17:36.444Z,14.70
2022-08-12T03:20:09.766Z,14.60
2022-08-12T03:22:42.181Z,14.70
2022-08-12T03:25:16.000Z,14.60
2022-08-12T03:27:51.760Z,14.60
2022-08-12T03:30:20.297Z,14.60
2022-08-12T03:32:48.961Z,14.60
2022-08-12T03:35:40.642Z,14.60
2022-08-12T03:38:12.238Z,14.60
2022-08-12T03:41:35.494Z,14.50
2022-08-12T03:44:35.742Z,14.50
2022-08-12T03:47:41.466Z,14.60
2022-08-12T03:50:27.464Z,14.50
2022-08-12T03:53:13.091Z,14.50
2022-08-12T03:55:58.779Z,14.50
2022-08-12T03:58:44.857Z,14.50
2022-08-12T04:01:13.135Z,14.70
2022-08-12T04:03:52.335Z,14.60
2022-08-12T04:06:34.847Z,14.60
2022-08-12T04:09:14.419Z,14.60
2022-08-12T04:12:01.031Z,14.50
2022-08-12T04:14:28.256Z,14.50
2022-08-12T04:16:56.322Z,14.50
2022-08-12T04:19:24.636Z,14.40
2022-08-12T04:22:02.146Z,14.40
2022-08-12T04:24:36.859Z,14.40
2022-08-12T04:27:10.957Z,14.50
2022-08-12T04:30:29.476Z,14.50
2022-08-12T04:32:28.067Z,14.60
2022-08-12T04:34:55.306Z,14.70
2022-08-12T04:37:23.040Z,14.70
2022-08-12T04:39:51.139Z,14.70
2022-08-12T04:42:20.130Z,14.80
2022-08-12T04:44:48.181Z,14.80
2022-08-12T04:47:16.963Z,15.20
2022-08-12T04:49:45.899Z,15.30
2022-08-12T04:52:12.839Z,15.20
2022-08-12T04:54:39.745Z,15.40
2022-08-12T04:57:09.729Z,15.50
2022-08-12T04:59:46.964Z,15.70
2022-08-12T05:02:21.515Z,15.50
2022-08-12T05:05:00.581Z,15.50
2022-08-12T05:07:28.608Z,15.80
2022-08-12T05:10:00.692Z,15.80
2022-08-12T05:12:57.833Z,15.80
2022-08-12T05:15:29.522Z,15.70
2022-08-12T05:18:00.233Z,15.80
2022-08-12T05:20:29.703Z,15.90
2022-08-12T05:23:31.175Z,16.00
2022-08-12T05:25:59.173Z,16.10
2022-08-12T05:28:27.535Z,16.20
2022-08-12T05:30:55.497Z,16.30
2022-08-12T05:33:31.572Z,16.40
2022-08-12T05:35:58.572Z,16.60
2022-08-12T05:38:43.816Z,16.70
2022-08-12T05:41:19.101Z,16.70
2022-08-12T05:43:55.643Z,16.90
2022-08-12T05:46:24.211Z,16.90
2022-08-12T05:48:54.455Z,17.00
2022-08-12T05:51:38.596Z,17.20
2022-08-12T05:56:49.142Z,20.90
2022-08-12T05:59:17.163Z,23.20
2022-08-12T06:02:09.493Z,24.50
2022-08-12T06:04:32.790Z,25.00
2022-08-12T06:07:01.769Z,24.90
2022-08-12T06:09:31.005Z,24.50
2022-08-12T06:12:05.695Z,25.40
2022-08-12T06:14:36.767Z,25.70
2022-08-12T06:17:05.403Z,26.20
2022-08-12T06:20:28.345Z,25.80
2022-08-12T06:22:19.529Z,26.50
2022-08-12T06:24:48.488Z,25.90
2022-08-12T06:27:18.800Z,26.30
2022-08-12T06:30:09.955Z,27.20
2022-08-12T06:32:32.867Z,27.30
2022-08-12T06:35:26.489Z,26.50
2022-08-12T06:37:56.521Z,26.40
2022-08-12T06:40:42.922Z,27.00
2022-08-12T06:43:09.839Z,26.40
2022-08-12T06:45:45.580Z,26.30
2022-08-12T06:48:12.682Z,25.90
2022-08-12T06:50:40.331Z,25.10
2022-08-12T06:53:09.355Z,25.40
2022-08-12T06:55:36.529Z,25.40
2022-08-12T06:58:07.775Z,25.40
2022-08-12T07:00:37.602Z,25.40
2022-08-12T07:03:22.760Z,26.00
2022-08-12T07:05:50.750Z,26.50
2022-08-12T07:08:18.283Z,28.10
2022-08-12T07:11:01.031Z,28.70
2022-08-12T07:14:12.033Z,28.90
2022-08-12T07:16:52.222Z,29.50
2022-08-12T07:19:20.595Z,29.00
2022-08-12T07:22:01.791Z,28.60
2022-08-12T07:24:29.998Z,29.20
2022-08-12T07:26:57.057Z,29.20
2022-08-12T07:29:26.058Z,29.30
2022-08-12T07:32:12.896Z,29.40
2022-08-12T07:34:43.344Z,29.20
2022-08-12T07:37:10.246Z,29.70
2022-08-12T07:39:37.144Z,29.80
2022-08-12T07:42:18.904Z,30.50
2022-08-12T07:44:47.208Z,30.80
2022-08-12T07:47:18.735Z,30.80
2022-08-12T07:50:04.991Z,30.50
2022-08-12T07:52:32.852Z,30.50
2022-08-12T07:55:00.920Z,30.40
2022-08-12T07:57:29.916Z,30.70
2022-08-12T07:59:56.688Z,30.90
2022-08-12T08:02:26.808Z,30.40
2022-08-12T08:04:56.596Z,29.90
2022-08-12T08:07:25.763Z,30.10
2022-08-12T08:09:58.577Z,31.10
2022-08-12T08:12:46.247Z,30.20
2022-08-12T08:15:15.043Z,30.30
2022-08-12T08:17:57.963Z,30.50
2022-08-12T08:20:28.582Z,31.00
2022-08-12T08:23:05.687Z,30.50
2022-08-12T08:25:35.637Z,30.90
2022-08-12T08:28:09.496Z,29.90
2022-08-12T08:30:38.997Z,29.80
2022-08-12T08:33:22.914Z,30.20
2022-08-12T08:35:54.186Z,29.70
2022-08-12T08:38:31.976Z,29.20
2022-08-12T08:42:17.158Z,29.20
2022-08-12T08:44:06.458Z,28.10
2022-08-12T08:46:37.544Z,27.50
2022-08-12T08:49:05.404Z,25.70
2022-08-12T08:51:32.895Z,24.90
2022-08-12T08:53:59.789Z,24.60
2022-08-12T08:56:29.288Z,24.20
2022-08-12T08:58:59.535Z,24.60
2022-08-12T09:01:37.401Z,24.90
2022-08-12T09:05:09.475Z,25.20
2022-08-12T09:06:56.738Z,25.40
2022-08-12T09:09:24.517Z,25.20
2022-08-12T09:12:27.322Z,25.10
2022-08-12T09:14:54.742Z,24.80
2022-08-12T09:17:23.591Z,24.60
2022-08-12T09:19:56.911Z,25.30
2022-08-12T09:22:28.584Z,25.60
2022-08-12T09:28:15.566Z,27.30
2022-08-12T09:30:42.459Z,27.40
2022-08-12T09:33:18.440Z,28.20
2022-08-12T09:36:04.474Z,26.50
2022-08-12T09:38:35.183Z,27.70
2022-08-12T09:42:33.549Z,29.00
2022-08-12T09:44:38.526Z,29.40
2022-08-12T09:46:58.901Z,29.30
2022-08-12T09:49:27.221Z,29.30
2022-08-12T09:51:55.164Z,29.70
2022-08-12T09:54:33.489Z,29.90
2022-08-12T09:58:44.671Z,30.20
2022-08-12T10:00:18.392Z,29.80
2022-08-12T10:03:32.396Z,29.30
2022-08-12T10:06:27.664Z,29.00
2022-08-12T10:08:52.303Z,29.50
2022-08-12T10:12:10.526Z,29.30
2022-08-12T10:14:34.247Z,29.10
2022-08-12T10:17:02.106Z,30.40
2022-08-12T10:19:36.739Z,30.80
2022-08-12T10:22:16.543Z,30.40
2022-08-12T10:24:43.651Z,31.50
2022-08-12T10:27:39.196Z,31.30
2022-08-12T10:30:40.964Z,31.50
2022-08-12T10:33:18.311Z,31.30
2022-08-12T10:35:47.861Z,31.80
2022-08-12T10:38:34.807Z,31.60
2022-08-12T10:41:57.090Z,29.80
2022-08-12T10:44:16.963Z,29.50
2022-08-12T10:46:49.145Z,30.30
2022-08-12T10:50:03.268Z,30.20
2022-08-12T10:52:34.807Z,29.80
2022-08-12T10:54:55.500Z,29.30
2022-08-12T10:58:12.974Z,29.40
2022-08-12T11:00:30.604Z,30.60
2022-08-12T11:04:28.474Z,30.10
2022-08-12T11:07:08.177Z,30.40
2022-08-12T11:08:43.603Z,31.30
2022-08-12T11:12:08.238Z,30.80
2022-08-12T11:14:05.708Z,31.20
2022-08-12T11:16:33.894Z,30.60
2022-08-12T11:19:02.594Z,31.40
2022-08-12T11:21:51.420Z,30.80
2022-08-12T11:24:18.772Z,30.70
2022-08-12T11:26:59.514Z,30.60
2022-08-12T11:29:28.124Z,30.10
2022-08-12T11:32:14.991Z,30.90
2022-08-12T11:34:53.638Z,31.10
2022-08-12T11:37:26.597Z,30.20
2022-08-12T11:42:46.972Z,30.80
2022-08-12T11:45:16.390Z,30.20
2022-08-12T11:47:44.389Z,31.00
2022-08-12T11:50:19.062Z,30.40
2022-08-12T11:52:56.515Z,29.60
2022-08-12T11:55:24.987Z,29.70
2022-08-12T11:58:07.075Z,30.10
2022-08-12T12:03:46.000Z,30.30
2022-08-12T12:06:17.863Z,30.50
2022-08-12T12:08:52.769Z,29.70
2022-08-12T12:11:21.482Z,30.00
2022-08-12T12:14:08.298Z,29.60
2022-08-12T12:16:37.959Z,29.80
2022-08-12T12:19:06.686Z,28.70
2022-08-12T12:21:47.627Z,29.40
2022-08-12T12:24:21.498Z,29.90
2022-08-12T12:26:59.774Z,29.60
2022-08-12T12:30:18.218Z,29.60
2022-08-12T12:32:29.451Z,28.90
2022-08-12T12:35:14.592Z,28.10
2022-08-12T12:38:04.875Z,28.20
2022-08-12T12:40:34.619Z,28.40
2022-08-12T12:43:09.699Z,28.00
2022-08-12T12:45:39.311Z,28.10
2022-08-12T12:48:08.812Z,28.80
2022-08-12T12:50:51.178Z,29.70
2022-08-12T12:53:46.662Z,29.60
2022-08-12T12:56:21.067Z,29.00
2022-08-12T12:59:02.639Z,29.20
2022-08-12T13:01:32.050Z,29.30
2022-08-12T13:04:02.482Z,29.40
2022-08-12T13:06:36.284Z,29.00
2022-08-12T13:09:03.873Z,29.00
2022-08-12T13:11:41.358Z,28.30
2022-08-12T13:14:28.408Z,28.70
2022-08-12T13:17:02.674Z,28.70
2022-08-12T13:19:45.100Z,28.20
2022-08-12T13:22:23.610Z,27.70
2022-08-12T13:24:56.303Z,28.00
2022-08-12T13:27:35.599Z,27.80
2022-08-12T13:30:10.947Z,27.50
2022-08-12T13:32:40.468Z,27.20
2022-08-12T13:35:19.266Z,26.80
2022-08-12T13:37:55.800Z,27.10
2022-08-12T13:40:33.504Z,28.00
2022-08-12T13:43:02.166Z,28.30
2022-08-12T13:45:33.468Z,28.50
2022-08-12T13:48:05.918Z,28.30
2022-08-12T13:50:38.472Z,27.80
2022-08-12T13:53:23.408Z,26.10
2022-08-12T13:56:01.564Z,23.80
2022-08-12T13:58:30.699Z,22.80
2022-08-12T14:00:58.439Z,22.50
2022-08-12T14:03:28.369Z,22.40
2022-08-12T14:06:04.567Z,22.60
2022-08-12T14:08:34.600Z,22.80
2022-08-12T14:11:02.249Z,22.90
2022-08-12T14:14:05.797Z,23.50
2022-08-12T14:16:37.905Z,23.90
2022-08-12T14:19:21.772Z,24.20
2022-08-12T14:21:59.165Z,24.40
2022-08-12T14:24:40.128Z,25.20
2022-08-12T14:27:10.369Z,25.60
2022-08-12T14:30:05.624Z,25.40
2022-08-12T14:32:35.575Z,25.30
2022-08-12T14:35:09.302Z,25.60
2022-08-12T14:37:57.436Z,25.70
2022-08-12T14:40:29.992Z,25.80
2022-08-12T14:42:58.449Z,25.90
2022-08-12T14:45:44.430Z,25.70
2022-08-12T14:48:14.918Z,25.50
2022-08-12T14:51:07.573Z,25.60
2022-08-12T14:57:05.960Z,25.30
2022-08-12T14:59:26.180Z,25.50
2022-08-12T15:01:54.688Z,25.50
2022-08-12T15:04:28.647Z,25.40
2022-08-12T15:06:56.296Z,25.50
2022-08-12T15:09:29.099Z,25.30
2022-08-12T15:12:03.325Z,25.30
2022-08-12T15:14:35.302Z,25.30
2022-08-12T15:17:07.089Z,25.60
2022-08-12T15:20:31.328Z,25.60
2022-08-12T15:22:38.455Z,25.50
2022-08-12T15:25:08.967Z,25.50
2022-08-12T15:28:04.048Z,25.90
2022-08-12T15:30:31.243Z,25.90
2022-08-12T15:32:58.296Z,25.80
2022-08-12T15:35:31.460Z,25.90
2022-08-12T15:38:10.410Z,25.10
2022-08-12T15:40:48.454Z,24.90
2022-08-12T15:43:35.329Z,24.90
2022-08-12T15:46:05.769Z,24.80
2022-08-12T15:48:34.234Z,24.50
2022-08-12T15:51:02.922Z,24.30
2022-08-12T15:53:53.293Z,24.00
2022-08-12T15:56:29.543Z,23.90
2022-08-12T15:59:00.045Z,24.00
2022-08-12T16:01:35.630Z,24.00
2022-08-12T16:04:05.401Z,23.90
2022-08-12T16:09:45.375Z,24.00
2022-08-12T16:12:12.161Z,23.80
2022-08-12T16:14:39.701Z,23.60
2022-08-12T16:17:08.817Z,23.60
2022-08-12T16:20:02.849Z,23.60
2022-08-12T16:22:24.497Z,23.50
2022-08-12T16:24:54.151Z,23.50
2022-08-12T16:27:23.561Z,23.30
2022-08-12T16:29:57.225Z,23.30
2022-08-12T16:32:31.569Z,23.30
2022-08-12T16:34:59.907Z,23.40
2022-08-12T16:38:04.800Z,23.60
2022-08-12T16:40:14.697Z,23.50
2022-08-12T16:42:53.603Z,23.50
2022-08-12T16:45:32.376Z,23.50
2022-08-12T16:48:34.038Z,23.50
2022-08-12T16:51:12.613Z,23.50
2022-08-12T16:53:44.605Z,23.40
2022-08-12T16:56:17.019Z,23.30
2022-08-12T16:58:44.732Z,23.40
2022-08-12T17:01:15.620Z,23.30
2022-08-12T17:03:46.988Z,23.40
2022-08-12T17:06:22.187Z,23.20
2022-08-12T17:08:55.812Z,23.10
2022-08-12T17:11:24.591Z,23.00
2022-08-12T17:13:53.665Z,23.10
2022-08-12T17:16:21.373Z,23.10
2022-08-12T17:18:57.483Z,23.00
2022-08-12T17:21:40.514Z,23.10
2022-08-12T17:24:15.830Z,23.00
2022-08-12T17:26:48.492Z,22.90
2022-08-12T17:29:23.981Z,22.80
2022-08-12T17:32:02.927Z,22.60
2022-08-12T17:34:50.938Z,22.50
2022-08-12T17:37:17.937Z,22.40
2022-08-12T17:40:12.501Z,22.30
2022-08-12T17:42:35.642Z,22.10
2022-08-12T17:45:16.930Z,22.00
2022-08-12T17:48:01.279Z,21.90
2022-08-12T17:50:32.269Z,21.80
2022-08-12T17:53:02.995Z,21.70
2022-08-12T17:55:43.354Z,21.70
2022-08-12T17:58:14.719Z,21.60
2022-08-12T18:00:44.223Z,21.50
2022-08-12T18:04:13.905Z,21.40
2022-08-12T18:06:08.681Z,21.30
2022-08-12T18:08:53.710Z,21.30
2022-08-12T18:12:03.747Z,21.20
2022-08-12T18:14:31.023Z,21.10
2022-08-12T18:17:01.810Z,20.90
2022-08-12T18:19:34.047Z,20.90
2022-08-12T18:22:22.117Z,20.70
2022-08-12T18:25:04.150Z,20.70
2022-08-12T18:27:45.000Z,20.50
2022-08-12T18:30:20.303Z,20.50
2022-08-12T18:32:58.825Z,20.40
2022-08-12T18:35:47.572Z,20.40
2022-08-12T18:38:19.524Z,20.30
2022-08-12T18:41:07.149Z,20.20
2022-08-12T18:43:57.235Z,20.20
2022-08-12T18:46:53.868Z,20.10
2022-08-12T18:49:31.971Z,20.00
2022-08-12T18:52:04.346Z,19.90
2022-08-12T18:54:44.865Z,19.80
2022-08-12T18:57:45.602Z,19.80
2022-08-12T19:00:13.126Z,19.70
2022-08-12T19:02:42.387Z,19.70
2022-08-12T19:05:14.297Z,19.60
2022-08-12T19:08:00.691Z,19.50
2022-08-12T19:10:29.705Z,19.40
2022-08-12T19:13:23.094Z,19.40
2022-08-12T19:15:57.960Z,19.30
2022-08-12T19:18:29.972Z,19.30
2022-08-12T19:21:06.661Z,19.20
2022-08-12T19:23:42.645Z,19.10
2022-08-12T19:26:12.549Z,19.10
2022-08-12T19:28:40.592Z,19.00
2022-08-12T19:31:56.472Z,19.00
2022-08-12T19:38:04.306Z,19.00
2022-08-12T19:40:30.846Z,18.90
2022-08-12T19:43:18.726Z,18.90
2022-08-12T19:45:56.513Z,18.80
2022-08-12T19:48:30.755Z,18.70
2022-08-12T19:51:08.930Z,18.70
2022-08-12T19:53:57.906Z,18.80
2022-08-12T19:56:27.284Z,18.70
2022-08-12T19:59:18.683Z,18.60
2022-08-12T20:02:02.488Z,18.60
2022-08-12T20:04:32.676Z,18.50
2022-08-12T20:07:00.141Z,18.50
2022-08-12T20:09:28.462Z,18.40
2022-08-12T20:12:11.210Z,18.40
2022-08-12T20:14:45.070Z,18.30
2022-08-12T20:17:14.181Z,18.20
2022-08-12T20:20:01.028Z,18.20
2022-08-12T20:22:31.552Z,18.20
2022-08-12T20:25:07.128Z,18.10
2022-08-12T20:28:04.033Z,18.10
2022-08-12T20:30:37.727Z,18.10
2022-08-12T20:33:18.795Z,18.00
2022-08-12T20:36:06.725Z,18.10
2022-08-12T20:38:38.159Z,18.00
2022-08-12T20:41:19.073Z,17.90
2022-08-12T20:43:51.993Z,17.80
2022-08-12T20:46:20.005Z,17.80
2022-08-12T20:48:54.958Z,17.80
2022-08-12T20:51:27.388Z,17.80
2022-08-12T20:53:58.970Z,17.70
2022-08-12T20:56:34.394Z,17.70
2022-08-12T20:59:10.326Z,17.60
2022-08-12T21:01:47.375Z,17.60
2022-08-12T21:04:36.142Z,17.50
2022-08-12T21:07:09.709Z,17.50
2022-08-12T21:09:44.615Z,17.40
2022-08-12T21:12:30.870Z,17.40
2022-08-12T21:15:24.424Z,17.40
2022-08-12T21:18:11.199Z,17.20
2022-08-12T21:20:53.078Z,17.20
2022-08-12T21:23:21.404Z,17.10
2022-08-12T21:25:51.274Z,17.10
2022-08-12T21:28:21.105Z,17.10
2022-08-12T21:31:11.432Z,17.00
2022-08-12T21:33:58.739Z,16.90
2022-08-12T21:36:34.291Z,16.90
2022-08-12T21:39:20.799Z,16.90
2022-08-12T21:41:54.039Z,16.80
2022-08-12T21:45:44.323Z,16.70
2022-08-12T21:47:21.651Z,16.70
2022-08-12T21:50:03.406Z,16.80
2022-08-12T21:52:36.225Z,16.70
2022-08-12T21:55:17.845Z,16.70
2022-08-12T21:57:53.991Z,16.60
2022-08-12T22:00:34.300Z,16.50
2022-08-12T22:04:04.358Z,16.50
2022-08-12T22:06:26.191Z,16.40
2022-08-12T22:09:16.021Z,16.30
2022-08-12T22:11:56.662Z,16.30
2022-08-12T22:14:28.508Z,16.30
2022-08-12T22:16:56.645Z,16.30
2022-08-12T22:19:23.882Z,16.30
2022-08-12T22:21:55.812Z,16.30
2022-08-12T22:24:29.915Z,16.20
2022-08-12T22:27:18.070Z,16.20
2022-08-12T22:30:09.372Z,16.20
2022-08-12T22:32:50.442Z,16.10
2022-08-12T22:35:47.511Z,16.10
2022-08-12T22:38:26.695Z,16.00
2022-08-12T22:41:01.650Z,16.00
2022-08-12T22:44:00.168Z,16.00
2022-08-12T22:46:53.530Z,16.00
2022-08-12T22:49:22.347Z,15.90
2022-08-12T22:52:00.161Z,15.90
2022-08-12T22:54:35.511Z,15.80
2022-08-12T22:57:05.276Z,15.80
2022-08-12T22:59:55.885Z,15.80
2022-08-12T23:02:30.827Z,15.80
2022-08-12T23:04:58.379Z,15.80
2022-08-12T23:07:25.447Z,15.70
2022-08-12T23:09:52.404Z,15.60
2022-08-12T23:12:40.988Z,15.60
2022-08-12T23:15:14.509Z,15.50
2022-08-12T23:17:41.939Z,15.50
2022-08-12T23:20:11.318Z,15.50
2022-08-12T23:22:40.148Z,15.40
2022-08-12T23:25:21.132Z,15.40
2022-08-12T23:28:29.932Z,15.40
2022-08-12T23:31:04.586Z,15.40
2022-08-12T23:34:00.051Z,15.30
2022-08-12T23:36:31.662Z,15.30
2022-08-12T23:40:14.122Z,15.30
2022-08-12T23:42:17.712Z,15.20
2022-08-12T23:44:42.851Z,15.20
2022-08-12T23:47:12.611Z,15.10
2022-08-12T23:49:58.281Z,15.10
2022-08-12T23:52:34.577Z,15.10
2022-08-12T23:55:24.172Z,15.10
2022-08-12T23:58:17.622Z,15.00
